sensor_id;sensor_type;location;lat;lon;timestamp;temperature;humidity
35635;DHT22;21757;43.610;1.440;2023-01-10T00:01:31;8.40;99.90
35635;DHT22;21757;43.610;1.440;2023-01-10T00:03:58;8.40;99.90
35635;DHT22;21757;43.610;1.440;2023-01-10T00:06:23;8.40;99.90
35635;DHT22;21757;43.610;1.440;2023-01-10T00:08:49;8.40;99.90
35635;DHT22;21757;43.610;1.440;2023-01-10T00:11:15;8.30;99.90
35635;DHT22;21757;43.610;1.440;2023-01-10T00:13:59;8.40;99.90
35635;DHT22;21757;43.610;1.440;2023-01-10T00:16:25;8.50;99.90
35635;DHT22;21757;43.610;1.440;2023-01-10T00:18:50;8.50;99.90
35635;DHT22;21757;43.610;1.440;2023-01-10T00:21:16;8.60;99.90
35635;DHT22;21757;43.610;1.440;2023-01-10T00:23:43;8.60;99.90
35635;DHT22;21757;43.610;1.440;2023-01-10T00:26:09;8.60;99.90
35635;DHT22;21757;43.610;1.440;2023-01-10T00:28:34;8.70;99.90
35635;DHT22;21757;43.610;1.440;2023-01-10T00:31:01;8.70;99.90
35635;DHT22;21757;43.610;1.440;2023-01-10T00:33:32;8.70;99.90
35635;DHT22;21757;43.610;1.440;2023-01-10T00:36:02;8.70;99.90
35635;DHT22;21757;43.610;1.440;2023-01-10T00:38:28;8.70;99.90
35635;DHT22;21757;43.610;1.440;2023-01-10T00:40:55;8.70;99.90
35635;DHT22;21757;43.610;1.440;2023-01-10T00:43:21;8.80;99.90
35635;DHT22;21757;43.610;1.440;2023-01-10T00:46:06;8.80;99.90
35635;DHT22;21757;43.610;1.440;2023-01-10T00:48:32;8.80;99.90
35635;DHT22;21757;43.610;1.440;2023-01-10T00:50:57;8.90;99.90
35635;DHT22;21757;43.610;1.440;2023-01-10T00:53:23;8.90;99.90
35635;DHT22;21757;43.610;1.440;2023-01-10T00:55:49;8.90;99.90
35635;DHT22;21757;43.610;1.440;2023-01-10T00:58:14;8.90;99.90
35635;DHT22;21757;43.610;1.440;2023-01-10T01:00:41;8.90;99.90
35635;DHT22;21757;43.610;1.440;2023-01-10T01:03:07;8.90;99.90
35635;DHT22;21757;43.610;1.440;2023-01-10T01:05:38;8.90;99.90
35635;DHT22;21757;43.610;1.440;2023-01-10T01:08:04;8.90;99.90
35635;DHT22;21757;43.610;1.440;2023-01-10T01:10:30;8.90;99.90
35635;DHT22;21757;43.610;1.440;2023-01-10T01:12:58;9.00;99.90
35635;DHT22;21757;43.610;1.440;2023-01-10T01:15:26;8.90;99.90
35635;DHT22;21757;43.610;1.440;2023-01-10T01:17:52;8.80;99.90
35635;DHT22;21757;43.610;1.440;2023-01-10T01:20:19;8.80;99.90
35635;DHT22;21757;43.610;1.440;2023-01-10T01:22:46;8.80;99.90
35635;DHT22;21757;43.610;1.440;2023-01-10T01:25:12;8.80;99.90
35635;DHT22;21757;43.610;1.440;2023-01-10T01:27:38;8.80;99.90
35635;DHT22;21757;43.610;1.440;2023-01-10T01:30:05;8.80;99.90
35635;DHT22;21757;43.610;1.440;2023-01-10T01:32:31;8.80;99.90
35635;DHT22;21757;43.610;1.440;2023-01-10T01:34:57;8.80;99.90
35635;DHT22;21757;43.610;1.440;2023-01-10T01:37:23;8.80;99.90
35635;DHT22;21757;43.610;1.440;2023-01-10T01:39:48;8.80;99.90
35635;DHT22;21757;43.610;1.440;2023-01-10T01:42:30;8.80;99.90
35635;DHT22;21757;43.610;1.440;2023-01-10T01:48:36;8.90;99.90
35635;DHT22;21757;43.610;1.440;2023-01-10T01:53:20;8.90;99.90
35635;DHT22;21757;43.610;1.440;2023-01-10T01:55:47;8.90;99.90
35635;DHT22;21757;43.610;1.440;2023-01-10T01:58:17;8.90;99.90
35635;DHT22;21757;43.610;1.440;2023-01-10T02:00:43;8.90;99.90
35635;DHT22;21757;43.610;1.440;2023-01-10T02:03:09;8.90;99.90
35635;DHT22;21757;43.610;1.440;2023-01-10T02:05:37;8.90;99.90
35635;DHT22;21757;43.610;1.440;2023-01-10T02:08:03;8.90;99.90
35635;DHT22;21757;43.610;1.440;2023-01-10T02:13:36;8.90;99.90
35635;DHT22;21757;43.610;1.440;2023-01-10T02:16:03;8.90;99.90
35635;DHT22;21757;43.610;1.440;2023-01-10T02:18:29;8.90;99.90
35635;DHT22;21757;43.610;1.440;2023-01-10T02:26:26;8.90;99.90
35635;DHT22;21757;43.610;1.440;2023-01-10T02:30:02;8.80;99.90
35635;DHT22;21757;43.610;1.440;2023-01-10T02:32:27;8.80;99.90
35635;DHT22;21757;43.610;1.440;2023-01-10T02:42:51;8.80;99.90
35635;DHT22;21757;43.610;1.440;2023-01-10T02:45:34;8.80;99.90
35635;DHT22;21757;43.610;1.440;2023-01-10T02:48:01;8.80;99.90
35635;DHT22;21757;43.610;1.440;2023-01-10T02:53:48;8.80;99.90
35635;DHT22;21757;43.610;1.440;2023-01-10T03:02:02;8.60;99.90
35635;DHT22;21757;43.610;1.440;2023-01-10T03:10:05;8.70;99.90
35635;DHT22;21757;43.610;1.440;2023-01-10T03:13:05;8.70;99.90
35635;DHT22;21757;43.610;1.440;2023-01-10T03:15:33;8.70;99.90
35635;DHT22;21757;43.610;1.440;2023-01-10T03:18:02;8.70;99.90
35635;DHT22;21757;43.610;1.440;2023-01-10T03:20:31;8.70;99.90
35635;DHT22;21757;43.610;1.440;2023-01-10T03:23:01;8.70;99.90
35635;DHT22;21757;43.610;1.440;2023-01-10T03:25:32;8.70;99.90
35635;DHT22;21757;43.610;1.440;2023-01-10T03:28:15;8.70;99.90
35635;DHT22;21757;43.610;1.440;2023-01-10T03:30:54;8.70;99.90
35635;DHT22;21757;43.610;1.440;2023-01-10T03:33:26;8.70;99.90
35635;DHT22;21757;43.610;1.440;2023-01-10T03:36:32;8.70;99.90
35635;DHT22;21757;43.610;1.440;2023-01-10T03:39:05;8.70;99.90
35635;DHT22;21757;43.610;1.440;2023-01-10T03:41:47;8.70;99.90
35635;DHT22;21757;43.610;1.440;2023-01-10T03:44:41;8.70;99.90
35635;DHT22;21757;43.610;1.440;2023-01-10T03:47:41;8.70;99.90
35635;DHT22;21757;43.610;1.440;2023-01-10T03:50:13;8.60;99.90
35635;DHT22;21757;43.610;1.440;2023-01-10T03:52:40;8.60;99.90
35635;DHT22;21757;43.610;1.440;2023-01-10T03:55:10;8.60;99.90
35635;DHT22;21757;43.610;1.440;2023-01-10T03:57:36;8.60;99.90
35635;DHT22;21757;43.610;1.440;2023-01-10T04:00:06;8.60;99.90
35635;DHT22;21757;43.610;1.440;2023-01-10T04:02:32;8.50;99.90
35635;DHT22;21757;43.610;1.440;2023-01-10T04:04:58;8.50;99.90
35635;DHT22;21757;43.610;1.440;2023-01-10T04:07:24;8.50;99.90
35635;DHT22;21757;43.610;1.440;2023-01-10T04:09:50;8.40;99.90
35635;DHT22;21757;43.610;1.440;2023-01-10T04:12:16;8.40;99.90
35635;DHT22;21757;43.610;1.440;2023-01-10T04:14:42;8.30;99.90
35635;DHT22;21757;43.610;1.440;2023-01-10T04:17:10;8.30;99.90
35635;DHT22;21757;43.610;1.440;2023-01-10T04:19:35;8.20;99.90
35635;DHT22;21757;43.610;1.440;2023-01-10T04:22:01;8.10;99.90
35635;DHT22;21757;43.610;1.440;2023-01-10T04:24:27;8.00;99.90
35635;DHT22;21757;43.610;1.440;2023-01-10T04:26:54;8.00;99.90
35635;DHT22;21757;43.610;1.440;2023-01-10T04:29:20;7.90;99.90
35635;DHT22;21757;43.610;1.440;2023-01-10T04:31:45;7.90;99.90
35635;DHT22;21757;43.610;1.440;2023-01-10T04:34:11;7.90;99.90
35635;DHT22;21757;43.610;1.440;2023-01-10T04:36:37;7.90;99.90
35635;DHT22;21757;43.610;1.440;2023-01-10T04:39:03;8.00;99.90
35635;DHT22;21757;43.610;1.440;2023-01-10T04:41:29;8.00;99.90
35635;DHT22;21757;43.610;1.440;2023-01-10T04:43:54;8.10;99.90
35635;DHT22;21757;43.610;1.440;2023-01-10T04:46:20;8.10;99.90
35635;DHT22;21757;43.610;1.440;2023-01-10T04:48:46;8.10;99.90
35635;DHT22;21757;43.610;1.440;2023-01-10T04:51:11;8.20;99.90
35635;DHT22;21757;43.610;1.440;2023-01-10T04:53:37;8.20;99.90
35635;DHT22;21757;43.610;1.440;2023-01-10T04:56:14;8.20;99.90
35635;DHT22;21757;43.610;1.440;2023-01-10T04:58:40;8.20;99.90
35635;DHT22;21757;43.610;1.440;2023-01-10T05:01:10;8.20;99.90
35635;DHT22;21757;43.610;1.440;2023-01-10T05:03:36;8.20;99.90
35635;DHT22;21757;43.610;1.440;2023-01-10T05:06:02;8.20;99.90
35635;DHT22;21757;43.610;1.440;2023-01-10T05:08:29;8.20;99.90
35635;DHT22;21757;43.610;1.440;2023-01-10T05:10:55;8.20;99.90
35635;DHT22;21757;43.610;1.440;2023-01-10T05:13:21;8.20;99.90
35635;DHT22;21757;43.610;1.440;2023-01-10T05:15:46;8.20;99.90
35635;DHT22;21757;43.610;1.440;2023-01-10T05:18:12;8.20;99.90
35635;DHT22;21757;43.610;1.440;2023-01-10T05:20:38;8.20;99.90
35635;DHT22;21757;43.610;1.440;2023-01-10T05:23:03;8.20;99.90
35635;DHT22;21757;43.610;1.440;2023-01-10T05:25:29;8.20;99.90
35635;DHT22;21757;43.610;1.440;2023-01-10T05:27:54;8.20;99.90
35635;DHT22;21757;43.610;1.440;2023-01-10T05:30:20;8.20;99.90
35635;DHT22;21757;43.610;1.440;2023-01-10T05:32:46;8.10;99.90
35635;DHT22;21757;43.610;1.440;2023-01-10T05:35:12;8.10;99.90
35635;DHT22;21757;43.610;1.440;2023-01-10T05:37:37;8.10;99.90
35635;DHT22;21757;43.610;1.440;2023-01-10T05:40:03;8.10;99.90
35635;DHT22;21757;43.610;1.440;2023-01-10T05:42:29;8.10;99.90
35635;DHT22;21757;43.610;1.440;2023-01-10T05:44:55;8.10;99.90
35635;DHT22;21757;43.610;1.440;2023-01-10T05:47:20;8.10;99.90
35635;DHT22;21757;43.610;1.440;2023-01-10T05:49:46;8.10;99.90
35635;DHT22;21757;43.610;1.440;2023-01-10T05:52:12;8.10;99.90
35635;DHT22;21757;43.610;1.440;2023-01-10T05:54:37;8.10;99.90
35635;DHT22;21757;43.610;1.440;2023-01-10T05:57:03;8.10;99.90
35635;DHT22;21757;43.610;1.440;2023-01-10T05:59:29;8.10;99.90
35635;DHT22;21757;43.610;1.440;2023-01-10T06:01:54;8.10;99.90
35635;DHT22;21757;43.610;1.440;2023-01-10T06:04:20;8.20;99.90
35635;DHT22;21757;43.610;1.440;2023-01-10T06:06:46;8.10;99.90
35635;DHT22;21757;43.610;1.440;2023-01-10T06:09:11;8.20;99.90
35635;DHT22;21757;43.610;1.440;2023-01-10T06:11:37;8.20;99.90
35635;DHT22;21757;43.610;1.440;2023-01-10T06:14:03;8.30;99.90
35635;DHT22;21757;43.610;1.440;2023-01-10T06:16:30;8.30;99.90
35635;DHT22;21757;43.610;1.440;2023-01-10T06:18:55;8.30;99.90
35635;DHT22;21757;43.610;1.440;2023-01-10T06:21:21;8.30;99.90
35635;DHT22;21757;43.610;1.440;2023-01-10T06:23:47;8.20;99.90
35635;DHT22;21757;43.610;1.440;2023-01-10T06:26:13;8.30;99.90
35635;DHT22;21757;43.610;1.440;2023-01-10T06:28:38;8.20;99.90
35635;DHT22;21757;43.610;1.440;2023-01-10T06:31:06;8.20;99.90
35635;DHT22;21757;43.610;1.440;2023-01-10T06:33:32;8.10;99.90
35635;DHT22;21757;43.610;1.440;2023-01-10T06:35:58;8.10;99.90
35635;DHT22;21757;43.610;1.440;2023-01-10T06:38:23;8.00;99.90
35635;DHT22;21757;43.610;1.440;2023-01-10T06:40:49;8.00;99.90
35635;DHT22;21757;43.610;1.440;2023-01-10T06:43:14;8.00;99.90
35635;DHT22;21757;43.610;1.440;2023-01-10T06:45:40;8.00;99.90
35635;DHT22;21757;43.610;1.440;2023-01-10T06:48:06;8.10;99.90
35635;DHT22;21757;43.610;1.440;2023-01-10T06:50:31;8.10;99.90
35635;DHT22;21757;43.610;1.440;2023-01-10T06:52:58;8.10;99.90
35635;DHT22;21757;43.610;1.440;2023-01-10T06:55:25;8.20;99.90
35635;DHT22;21757;43.610;1.440;2023-01-10T06:57:59;8.20;99.90
35635;DHT22;21757;43.610;1.440;2023-01-10T07:00:26;8.20;99.90
35635;DHT22;21757;43.610;1.440;2023-01-10T07:02:54;8.20;99.90
35635;DHT22;21757;43.610;1.440;2023-01-10T07:05:21;8.20;99.90
35635;DHT22;21757;43.610;1.440;2023-01-10T07:07:46;8.20;99.90
35635;DHT22;21757;43.610;1.440;2023-01-10T07:10:12;8.30;99.90
35635;DHT22;21757;43.610;1.440;2023-01-10T07:12:38;8.20;99.90
35635;DHT22;21757;43.610;1.440;2023-01-10T07:15:04;8.20;99.90
35635;DHT22;21757;43.610;1.440;2023-01-10T07:17:30;8.30;99.90
35635;DHT22;21757;43.610;1.440;2023-01-10T07:19:55;8.30;99.90
35635;DHT22;21757;43.610;1.440;2023-01-10T07:22:21;8.30;99.90
35635;DHT22;21757;43.610;1.440;2023-01-10T07:24:47;8.30;99.90
35635;DHT22;21757;43.610;1.440;2023-01-10T07:27:13;8.30;99.90
35635;DHT22;21757;43.610;1.440;2023-01-10T07:29:39;8.30;99.90
35635;DHT22;21757;43.610;1.440;2023-01-10T07:32:05;8.20;99.90
35635;DHT22;21757;43.610;1.440;2023-01-10T07:34:31;8.20;99.90
35635;DHT22;21757;43.610;1.440;2023-01-10T07:36:56;8.20;99.90
35635;DHT22;21757;43.610;1.440;2023-01-10T07:39:22;8.20;99.90
35635;DHT22;21757;43.610;1.440;2023-01-10T07:41:49;8.30;99.90
35635;DHT22;21757;43.610;1.440;2023-01-10T07:44:15;8.30;99.90
35635;DHT22;21757;43.610;1.440;2023-01-10T07:46:40;8.30;99.90
35635;DHT22;21757;43.610;1.440;2023-01-10T07:49:06;8.30;99.90
35635;DHT22;21757;43.610;1.440;2023-01-10T07:51:32;8.40;99.90
35635;DHT22;21757;43.610;1.440;2023-01-10T07:53:58;8.50;99.90
35635;DHT22;21757;43.610;1.440;2023-01-10T07:56:24;8.50;99.90
35635;DHT22;21757;43.610;1.440;2023-01-10T07:58:49;8.60;99.90
35635;DHT22;21757;43.610;1.440;2023-01-10T08:01:15;8.60;99.90
35635;DHT22;21757;43.610;1.440;2023-01-10T08:03:41;8.60;99.90
35635;DHT22;21757;43.610;1.440;2023-01-10T08:06:08;8.60;99.90
35635;DHT22;21757;43.610;1.440;2023-01-10T08:08:37;8.50;99.90
35635;DHT22;21757;43.610;1.440;2023-01-10T08:11:04;8.70;99.90
35635;DHT22;21757;43.610;1.440;2023-01-10T08:13:30;8.70;99.90
35635;DHT22;21757;43.610;1.440;2023-01-10T08:15:57;8.60;99.90
35635;DHT22;21757;43.610;1.440;2023-01-10T08:18:23;8.70;99.90
35635;DHT22;21757;43.610;1.440;2023-01-10T08:20:51;8.70;99.90
35635;DHT22;21757;43.610;1.440;2023-01-10T08:23:18;8.70;99.90
35635;DHT22;21757;43.610;1.440;2023-01-10T08:25:44;8.80;99.90
35635;DHT22;21757;43.610;1.440;2023-01-10T08:28:10;9.00;99.90
35635;DHT22;21757;43.610;1.440;2023-01-10T08:30:36;9.00;99.90
35635;DHT22;21757;43.610;1.440;2023-01-10T08:33:03;8.90;99.90
35635;DHT22;21757;43.610;1.440;2023-01-10T08:35:30;9.00;99.90
35635;DHT22;21757;43.610;1.440;2023-01-10T08:37:59;9.10;99.90
35635;DHT22;21757;43.610;1.440;2023-01-10T08:40:25;9.00;99.90
35635;DHT22;21757;43.610;1.440;2023-01-10T08:43:02;9.00;99.90
35635;DHT22;21757;43.610;1.440;2023-01-10T08:45:29;9.10;99.90
35635;DHT22;21757;43.610;1.440;2023-01-10T08:47:55;9.00;99.90
35635;DHT22;21757;43.610;1.440;2023-01-10T08:50:21;8.90;99.90
35635;DHT22;21757;43.610;1.440;2023-01-10T08:52:47;8.80;99.90
35635;DHT22;21757;43.610;1.440;2023-01-10T08:55:12;8.90;99.90
35635;DHT22;21757;43.610;1.440;2023-01-10T08:57:38;9.10;99.90
35635;DHT22;21757;43.610;1.440;2023-01-10T09:00:04;9.20;99.90
35635;DHT22;21757;43.610;1.440;2023-01-10T09:02:30;9.30;99.90
35635;DHT22;21757;43.610;1.440;2023-01-10T09:04:56;9.30;99.90
35635;DHT22;21757;43.610;1.440;2023-01-10T09:07:22;9.20;99.90
35635;DHT22;21757;43.610;1.440;2023-01-10T09:09:47;9.10;99.90
35635;DHT22;21757;43.610;1.440;2023-01-10T09:12:13;9.10;99.90
35635;DHT22;21757;43.610;1.440;2023-01-10T09:14:58;9.00;99.90
35635;DHT22;21757;43.610;1.440;2023-01-10T09:17:23;9.00;99.90
35635;DHT22;21757;43.610;1.440;2023-01-10T09:19:49;9.10;99.90
35635;DHT22;21757;43.610;1.440;2023-01-10T09:22:15;9.10;99.90
35635;DHT22;21757;43.610;1.440;2023-01-10T09:24:40;9.10;99.90
35635;DHT22;21757;43.610;1.440;2023-01-10T09:27:09;9.20;99.90
35635;DHT22;21757;43.610;1.440;2023-01-10T09:29:35;9.10;99.90
35635;DHT22;21757;43.610;1.440;2023-01-10T09:32:01;9.20;99.90
35635;DHT22;21757;43.610;1.440;2023-01-10T09:34:27;9.30;99.90
35635;DHT22;21757;43.610;1.440;2023-01-10T09:36:53;9.30;99.90
35635;DHT22;21757;43.610;1.440;2023-01-10T09:39:19;9.40;99.90
35635;DHT22;21757;43.610;1.440;2023-01-10T09:45:10;9.60;99.90
35635;DHT22;21757;43.610;1.440;2023-01-10T09:47:51;9.70;99.90
35635;DHT22;21757;43.610;1.440;2023-01-10T09:50:41;9.70;99.90
35635;DHT22;21757;43.610;1.440;2023-01-10T09:53:18;9.80;99.90
35635;DHT22;21757;43.610;1.440;2023-01-10T09:55:49;9.80;99.90
35635;DHT22;21757;43.610;1.440;2023-01-10T09:58:18;9.80;99.90
35635;DHT22;21757;43.610;1.440;2023-01-10T10:01:05;9.90;99.90
35635;DHT22;21757;43.610;1.440;2023-01-10T10:03:52;10.00;99.90
35635;DHT22;21757;43.610;1.440;2023-01-10T10:06:21;10.10;99.90
35635;DHT22;21757;43.610;1.440;2023-01-10T10:08:47;10.00;99.90
35635;DHT22;21757;43.610;1.440;2023-01-10T10:17:21;10.30;99.90
35635;DHT22;21757;43.610;1.440;2023-01-10T10:27:55;10.50;99.90
35635;DHT22;21757;43.610;1.440;2023-01-10T10:30:27;10.50;99.90
35635;DHT22;21757;43.610;1.440;2023-01-10T10:35:54;10.50;99.90
35635;DHT22;21757;43.610;1.440;2023-01-10T10:38:30;10.60;99.90
35635;DHT22;21757;43.610;1.440;2023-01-10T10:40:58;10.60;99.90
35635;DHT22;21757;43.610;1.440;2023-01-10T10:43:31;10.70;99.90
35635;DHT22;21757;43.610;1.440;2023-01-10T10:46:11;10.80;99.90
35635;DHT22;21757;43.610;1.440;2023-01-10T10:48:44;10.80;99.90
35635;DHT22;21757;43.610;1.440;2023-01-10T10:51:22;10.90;99.90
35635;DHT22;21757;43.610;1.440;2023-01-10T10:53:49;11.00;99.90
35635;DHT22;21757;43.610;1.440;2023-01-10T10:56:18;11.10;99.90
35635;DHT22;21757;43.610;1.440;2023-01-10T10:58:48;11.00;99.90
35635;DHT22;21757;43.610;1.440;2023-01-10T11:01:15;11.00;99.90
35635;DHT22;21757;43.610;1.440;2023-01-10T11:04:05;11.10;99.90
35635;DHT22;21757;43.610;1.440;2023-01-10T11:06:35;11.10;99.90
35635;DHT22;21757;43.610;1.440;2023-01-10T11:09:04;11.20;99.90
35635;DHT22;21757;43.610;1.440;2023-01-10T11:11:33;11.30;99.90
35635;DHT22;21757;43.610;1.440;2023-01-10T11:14:05;11.40;99.90
35635;DHT22;21757;43.610;1.440;2023-01-10T11:16:35;11.40;99.90
35635;DHT22;21757;43.610;1.440;2023-01-10T11:21:46;11.50;99.90
35635;DHT22;21757;43.610;1.440;2023-01-10T11:24:34;11.60;99.90
35635;DHT22;21757;43.610;1.440;2023-01-10T11:27:25;11.70;99.90
35635;DHT22;21757;43.610;1.440;2023-01-10T11:29:52;11.70;99.90
35635;DHT22;21757;43.610;1.440;2023-01-10T11:32:22;11.90;99.90
35635;DHT22;21757;43.610;1.440;2023-01-10T11:34:57;11.90;99.90
35635;DHT22;21757;43.610;1.440;2023-01-10T11:37:29;11.90;99.90
35635;DHT22;21757;43.610;1.440;2023-01-10T11:40:20;11.90;99.90
35635;DHT22;21757;43.610;1.440;2023-01-10T11:42:49;11.90;99.90
35635;DHT22;21757;43.610;1.440;2023-01-10T11:48:01;12.00;99.90
35635;DHT22;21757;43.610;1.440;2023-01-10T11:50:33;12.10;99.90
35635;DHT22;21757;43.610;1.440;2023-01-10T11:52:59;12.10;99.90
35635;DHT22;21757;43.610;1.440;2023-01-10T11:55:30;12.10;99.90
35635;DHT22;21757;43.610;1.440;2023-01-10T12:00:42;12.10;99.90
35635;DHT22;21757;43.610;1.440;2023-01-10T12:03:33;12.10;99.90
35635;DHT22;21757;43.610;1.440;2023-01-10T12:06:05;12.20;99.90
35635;DHT22;21757;43.610;1.440;2023-01-10T12:08:36;12.40;99.90
35635;DHT22;21757;43.610;1.440;2023-01-10T12:13:53;12.40;99.90
35635;DHT22;21757;43.610;1.440;2023-01-10T12:16:30;12.40;99.90
35635;DHT22;21757;43.610;1.440;2023-01-10T12:19:03;12.50;99.90
35635;DHT22;21757;43.610;1.440;2023-01-10T12:21:42;12.50;99.90
35635;DHT22;21757;43.610;1.440;2023-01-10T12:24:21;12.50;99.90
35635;DHT22;21757;43.610;1.440;2023-01-10T12:26:49;12.40;99.90
35635;DHT22;21757;43.610;1.440;2023-01-10T12:29:22;12.50;99.90
35635;DHT22;21757;43.610;1.440;2023-01-10T12:31:50;12.50;99.90
35635;DHT22;21757;43.610;1.440;2023-01-10T12:34:30;12.50;99.90
35635;DHT22;21757;43.610;1.440;2023-01-10T12:39:38;12.60;99.90
35635;DHT22;21757;43.610;1.440;2023-01-10T12:44:59;12.60;99.90
35635;DHT22;21757;43.610;1.440;2023-01-10T12:50:27;12.50;99.90
35635;DHT22;21757;43.610;1.440;2023-01-10T12:53:04;12.40;99.90
35635;DHT22;21757;43.610;1.440;2023-01-10T12:55:37;12.60;99.90
35635;DHT22;21757;43.610;1.440;2023-01-10T12:58:08;12.50;99.90
35635;DHT22;21757;43.610;1.440;2023-01-10T13:00:39;12.50;99.90
35635;DHT22;21757;43.610;1.440;2023-01-10T13:03:35;12.70;99.90
35635;DHT22;21757;43.610;1.440;2023-01-10T13:06:00;12.80;99.90
35635;DHT22;21757;43.610;1.440;2023-01-10T13:08:30;12.90;99.90
35635;DHT22;21757;43.610;1.440;2023-01-10T13:10:58;12.90;99.90
35635;DHT22;21757;43.610;1.440;2023-01-10T13:13:39;12.90;99.90
35635;DHT22;21757;43.610;1.440;2023-01-10T13:21:36;13.10;99.90
35635;DHT22;21757;43.610;1.440;2023-01-10T13:29:22;13.20;99.90
35635;DHT22;21757;43.610;1.440;2023-01-10T13:31:50;13.20;99.90
35635;DHT22;21757;43.610;1.440;2023-01-10T13:34:26;13.00;99.90
35635;DHT22;21757;43.610;1.440;2023-01-10T13:37:03;13.00;99.90
35635;DHT22;21757;43.610;1.440;2023-01-10T13:39:41;13.00;99.90
35635;DHT22;21757;43.610;1.440;2023-01-10T13:42:20;13.10;99.90
35635;DHT22;21757;43.610;1.440;2023-01-10T14:01:00;13.50;99.90
35635;DHT22;21757;43.610;1.440;2023-01-10T14:03:54;13.50;99.90
35635;DHT22;21757;43.610;1.440;2023-01-10T14:09:28;13.50;99.90
35635;DHT22;21757;43.610;1.440;2023-01-10T14:11:54;13.50;99.90
35635;DHT22;21757;43.610;1.440;2023-01-10T14:14:34;13.50;99.90
35635;DHT22;21757;43.610;1.440;2023-01-10T14:19:45;13.40;99.90
35635;DHT22;21757;43.610;1.440;2023-01-10T14:22:27;13.40;99.90
35635;DHT22;21757;43.610;1.440;2023-01-10T14:24:56;13.30;99.90
35635;DHT22;21757;43.610;1.440;2023-01-10T14:27:22;13.30;99.90
35635;DHT22;21757;43.610;1.440;2023-01-10T14:29:55;13.40;99.90
35635;DHT22;21757;43.610;1.440;2023-01-10T14:32:34;13.40;99.90
35635;DHT22;21757;43.610;1.440;2023-01-10T14:35:02;13.40;99.90
35635;DHT22;21757;43.610;1.440;2023-01-10T14:37:36;13.40;99.90
35635;DHT22;21757;43.610;1.440;2023-01-10T14:40:09;13.40;99.90
35635;DHT22;21757;43.610;1.440;2023-01-10T14:42:40;13.50;99.90
35635;DHT22;21757;43.610;1.440;2023-01-10T14:47:48;13.50;99.90
35635;DHT22;21757;43.610;1.440;2023-01-10T14:50:26;13.40;99.90
35635;DHT22;21757;43.610;1.440;2023-01-10T14:52:57;13.50;99.90
35635;DHT22;21757;43.610;1.440;2023-01-10T14:55:23;13.50;99.90
35635;DHT22;21757;43.610;1.440;2023-01-10T14:57:59;13.50;99.90
35635;DHT22;21757;43.610;1.440;2023-01-10T15:00:33;13.50;99.90
35635;DHT22;21757;43.610;1.440;2023-01-10T15:03:01;13.50;99.90
35635;DHT22;21757;43.610;1.440;2023-01-10T15:05:31;13.50;99.90
35635;DHT22;21757;43.610;1.440;2023-01-10T15:08:29;13.40;99.90
35635;DHT22;21757;43.610;1.440;2023-01-10T15:11:01;13.40;99.90
35635;DHT22;21757;43.610;1.440;2023-01-10T15:13:29;13.40;99.90
35635;DHT22;21757;43.610;1.440;2023-01-10T15:15:55;13.40;99.90
35635;DHT22;21757;43.610;1.440;2023-01-10T15:18:43;13.40;99.90
35635;DHT22;21757;43.610;1.440;2023-01-10T15:21:11;13.40;99.90
35635;DHT22;21757;43.610;1.440;2023-01-10T15:23:40;13.30;99.90
35635;DHT22;21757;43.610;1.440;2023-01-10T15:26:18;13.30;99.90
35635;DHT22;21757;43.610;1.440;2023-01-10T15:28:59;13.20;99.90
35635;DHT22;21757;43.610;1.440;2023-01-10T15:31:27;13.20;99.90
35635;DHT22;21757;43.610;1.440;2023-01-10T15:33:53;13.10;99.90
35635;DHT22;21757;43.610;1.440;2023-01-10T15:36:24;13.00;99.90
35635;DHT22;21757;43.610;1.440;2023-01-10T15:38:50;13.10;99.90
35635;DHT22;21757;43.610;1.440;2023-01-10T15:41:19;13.00;99.90
35635;DHT22;21757;43.610;1.440;2023-01-10T15:43:46;12.90;99.90
35635;DHT22;21757;43.610;1.440;2023-01-10T15:46:19;13.00;99.90
35635;DHT22;21757;43.610;1.440;2023-01-10T15:48:55;12.90;99.90
35635;DHT22;21757;43.610;1.440;2023-01-10T15:51:28;12.80;99.90
35635;DHT22;21757;43.610;1.440;2023-01-10T15:56:51;12.70;99.90
35635;DHT22;21757;43.610;1.440;2023-01-10T15:59:34;12.70;99.90
35635;DHT22;21757;43.610;1.440;2023-01-10T16:02:24;12.60;99.90
35635;DHT22;21757;43.610;1.440;2023-01-10T16:04:55;12.60;99.90
35635;DHT22;21757;43.610;1.440;2023-01-10T16:07:27;12.60;99.90
35635;DHT22;21757;43.610;1.440;2023-01-10T16:12:42;12.40;99.90
35635;DHT22;21757;43.610;1.440;2023-01-10T16:15:31;12.30;99.90
35635;DHT22;21757;43.610;1.440;2023-01-10T16:17:57;12.20;99.90
35635;DHT22;21757;43.610;1.440;2023-01-10T16:20:29;12.20;99.90
35635;DHT22;21757;43.610;1.440;2023-01-10T16:22:56;12.10;99.90
35635;DHT22;21757;43.610;1.440;2023-01-10T16:25:34;12.00;99.90
35635;DHT22;21757;43.610;1.440;2023-01-10T16:28:01;12.00;99.90
35635;DHT22;21757;43.610;1.440;2023-01-10T16:30:29;11.90;99.90
35635;DHT22;21757;43.610;1.440;2023-01-10T16:32:55;11.80;99.90
35635;DHT22;21757;43.610;1.440;2023-01-10T16:35:23;11.80;99.90
35635;DHT22;21757;43.610;1.440;2023-01-10T16:37:51;11.90;99.90
35635;DHT22;21757;43.610;1.440;2023-01-10T16:40:41;11.90;99.90
35635;DHT22;21757;43.610;1.440;2023-01-10T16:43:09;11.90;99.90
35635;DHT22;21757;43.610;1.440;2023-01-10T16:45:58;11.90;99.90
35635;DHT22;21757;43.610;1.440;2023-01-10T16:48:29;11.80;99.90
35635;DHT22;21757;43.610;1.440;2023-01-10T16:51:09;11.60;99.90
35635;DHT22;21757;43.610;1.440;2023-01-10T16:53:37;11.50;99.90
35635;DHT22;21757;43.610;1.440;2023-01-10T16:56:04;11.50;99.90
35635;DHT22;21757;43.610;1.440;2023-01-10T16:58:29;11.40;99.90
35635;DHT22;21757;43.610;1.440;2023-01-10T17:00:56;11.40;99.90
35635;DHT22;21757;43.610;1.440;2023-01-10T17:03:24;11.40;99.90
35635;DHT22;21757;43.610;1.440;2023-01-10T17:05:51;11.40;99.90
35635;DHT22;21757;43.610;1.440;2023-01-10T17:08:21;11.40;99.90
35635;DHT22;21757;43.610;1.440;2023-01-10T17:10:54;11.40;99.90
35635;DHT22;21757;43.610;1.440;2023-01-10T17:13:29;11.30;99.90
35635;DHT22;21757;43.610;1.440;2023-01-10T17:15:56;11.20;99.90
35635;DHT22;21757;43.610;1.440;2023-01-10T17:18:23;11.20;99.90
35635;DHT22;21757;43.610;1.440;2023-01-10T17:20:50;11.10;99.90
35635;DHT22;21757;43.610;1.440;2023-01-10T17:23:16;11.00;99.90
35635;DHT22;21757;43.610;1.440;2023-01-10T17:25:42;10.90;99.90
35635;DHT22;21757;43.610;1.440;2023-01-10T17:28:11;10.90;99.90
35635;DHT22;21757;43.610;1.440;2023-01-10T17:30:39;10.90;99.90
35635;DHT22;21757;43.610;1.440;2023-01-10T17:33:04;10.80;99.90
35635;DHT22;21757;43.610;1.440;2023-01-10T17:35:41;10.80;99.90
35635;DHT22;21757;43.610;1.440;2023-01-10T17:38:13;10.80;99.90
35635;DHT22;21757;43.610;1.440;2023-01-10T17:40:43;10.90;99.90
35635;DHT22;21757;43.610;1.440;2023-01-10T17:43:10;10.80;99.90
35635;DHT22;21757;43.610;1.440;2023-01-10T17:45:40;10.80;99.90
35635;DHT22;21757;43.610;1.440;2023-01-10T17:48:06;10.70;99.90
35635;DHT22;21757;43.610;1.440;2023-01-10T17:50:33;10.70;99.90
35635;DHT22;21757;43.610;1.440;2023-01-10T17:52:58;10.70;99.90
35635;DHT22;21757;43.610;1.440;2023-01-10T17:55:24;10.70;99.90